Time;durP1;ratioP1;P1;durP2;ratioP2;P2;SDS_P1;SDS_P2;PMS_P1;PMS_P2;Temp;Humidity;BMP_temperature;BMP_pressure;BME280_temperature;BME280_humidity;BME280_pressure;Samples;Min_cycle;Max_cycle;Signal;HPM_P1;HPM_P2
2023/10/08 15:41:03;;;;;;;;;;;;;;;23.69;41.53;100486.81;7388077;19;1715;-42
2023/10/08 15:43:31;;;;;;;;;;;;;;;23.62;41.38;100485.84;7393681;19;1791;-40
2023/10/08 15:45:59;;;;;;;;;;;;;;;23.59;41.49;100486.16;7394241;19;1713;-40
2023/10/08 15:48:28;;;;;;;;;;;;;;;23.62;41.57;100507.44;7394886;19;1798;-40
2023/10/08 15:50:57;;;;;;;;;;;;;;;23.76;41.43;100508.56;7393408;19;1577;-41
2023/10/08 15:53:25;;;;;;;;;;;;;;;23.70;41.64;100501.16;7390379;19;1847;-41
2023/10/08 15:55:55;;;;;;;;;;;;;;;23.61;41.60;100511.13;7393550;19;1329;-41
2023/10/08 15:58:26;;;;;;;;;;;;;;;23.69;41.76;100521.91;7378989;19;1832;-41
2023/10/08 16:00:54;;;;;;;;;;;;;;;23.62;41.53;100527.16;7390756;19;1861;-41
2023/10/08 16:03:23;;;;;;;;;;;;;;;23.59;41.55;100522.09;7393436;19;1804;-41
2023/10/08 16:05:52;;;;;;;;;;;;;;;23.77;41.39;100527.31;7393367;19;1707;-41
2023/10/08 16:08:20;;;;;;;;;;;;;;;23.69;41.65;100532.69;7393640;19;1553;-45
2023/10/08 16:10:48;;;;;;;;;;;;;;;23.62;42.26;100545.22;7392120;19;1852;-41
2023/10/08 16:13:17;;;;;;;;;;;;;;;23.54;42.19;100537.13;7389936;19;2346;-41
2023/10/08 16:15:47;;;;;;;;;;;;;;;23.55;42.39;100545.03;7393151;19;1634;-41
2023/10/08 16:18:17;;;;;;;;;;;;;;;23.52;42.52;100566.16;7392396;19;1844;-41
2023/10/08 16:20:47;;;;;;;;;;;;;;;23.50;42.37;100574.41;7392324;19;1523;-41
2023/10/08 16:23:17;;;;;;;;;;;;;;;23.55;42.62;100619.78;7393491;19;1917;-41
2023/10/08 16:25:48;;;;;;;;;;;;;;;23.63;41.49;100633.28;7392662;19;1198;-41
2023/10/08 16:28:18;;;;;;;;;;;;;;;23.65;42.01;100627.72;7400558;19;1904;-41
2023/10/08 16:30:53;;;;;;;;;;;;;;;23.78;41.14;100642.41;7398843;19;1471;-41
2023/10/08 16:33:22;;;;;;;;;;;;;;;22.97;41.02;100560.38;7395570;19;2479;-41
2023/10/08 16:35:51;;;;;;;;;;;;;;;23.52;41.36;100706.50;7400841;19;1597;-41
2023/10/08 16:38:19;;;;;;;;;;;;;;;23.55;40.92;100687.25;7399411;19;1408;-47
2023/10/08 16:40:47;;;;;;;;;;;;;;;23.37;41.09;100709.84;7399543;19;1241;-41
2023/10/08 16:43:17;;;;;;;;;;;;;;;23.36;41.24;100716.25;7398670;19;1877;-41
2023/10/08 16:45:46;;;;;;;;;;;;;;;23.31;41.06;100712.34;7402011;19;1780;-41
2023/10/08 16:48:19;;;;;;;;;;;;;;;23.21;41.41;100734.91;7399835;19;1496;-41
2023/10/08 16:50:47;;;;;;;;;;;;;;;23.18;41.21;100739.81;7399352;19;1546;-41
2023/10/08 16:53:16;;;;;;;;;;;;;;;23.19;41.11;100745.03;7396905;19;1854;-41
2023/10/08 16:55:45;;;;;;;;;;;;;;;23.13;41.07;100753.78;7399752;19;1809;-41
2023/10/08 16:58:13;;;;;;;;;;;;;;;23.12;41.07;100762.91;7382849;19;1556;-41
2023/10/08 17:00:43;;;;;;;;;;;;;;;23.18;40.71;100774.91;7396396;19;1487;-41
2023/10/08 17:03:12;;;;;;;;;;;;;;;23.13;40.96;100766.44;7398745;19;1684;-41
2023/10/08 17:05:42;;;;;;;;;;;;;;;23.10;40.92;100777.53;7399136;19;1780;-41
2023/10/08 17:08:11;;;;;;;;;;;;;;;23.09;41.30;100795.56;7398379;19;1495;-41
2023/10/08 17:10:40;;;;;;;;;;;;;;;23.04;41.42;100787.16;7394616;19;1721;-41
2023/10/08 17:13:10;;;;;;;;;;;;;;;23.07;41.39;100812.94;7396493;19;1864;-41
2023/10/08 17:15:38;;;;;;;;;;;;;;;23.02;41.28;100813.44;7396842;19;2159;-41
2023/10/08 17:18:10;;;;;;;;;;;;;;;23.00;41.23;100808.16;7398486;19;1820;-41
2023/10/08 17:20:39;;;;;;;;;;;;;;;22.95;41.45;100823.97;7396924;19;1475;-41
2023/10/08 17:23:10;;;;;;;;;;;;;;;22.92;41.28;100828.81;7399478;19;1173;-44
2023/10/08 17:25:39;;;;;;;;;;;;;;;22.23;41.22;100732.53;7397891;19;1810;-41
2023/10/08 17:28:09;;;;;;;;;;;;;;;22.97;41.11;100843.53;7397353;19;1480;-43
2023/10/08 17:30:38;;;;;;;;;;;;;;;22.97;41.12;100857.00;7397196;19;1507;-42
2023/10/08 17:33:07;;;;;;;;;;;;;;;22.94;41.22;100873.53;7396308;19;1842;-41
2023/10/08 17:35:35;;;;;;;;;;;;;;;23.03;41.13;100872.59;7398605;19;1927;-41
2023/10/08 17:38:04;;;;;;;;;;;;;;;23.00;41.35;100874.75;7395964;19;1789;-41
2023/10/08 17:40:37;;;;;;;;;;;;;;;23.07;41.19;100877.66;7395976;19;1511;-41
2023/10/08 17:43:05;;;;;;;;;;;;;;;23.05;41.20;100898.56;7397971;19;1499;-42
2023/10/08 17:45:35;;;;;;;;;;;;;;;22.93;41.30;100906.88;7396326;19;1491;-41
2023/10/08 17:48:05;;;;;;;;;;;;;;;22.98;41.29;100914.53;7395803;19;1903;-41
2023/10/08 17:50:35;;;;;;;;;;;;;;;23.00;40.92;100918.75;7396470;19;1468;-41
2023/10/08 17:53:05;;;;;;;;;;;;;;;22.96;41.27;100917.38;7396572;19;1853;-41
2023/10/08 17:55:36;;;;;;;;;;;;;;;22.84;41.51;100926.72;7395715;19;1532;-41
2023/10/08 17:58:07;;;;;;;;;;;;;;;22.90;41.29;100941.41;7382019;19;1595;-41
2023/10/08 18:00:40;;;;;;;;;;;;;;;22.86;41.34;100940.03;7396516;19;1785;-41
2023/10/08 18:03:09;;;;;;;;;;;;;;;22.78;41.19;100947.06;7395349;19;1478;-41
2023/10/08 18:05:39;;;;;;;;;;;;;;;22.84;41.14;100945.59;7396752;19;1528;-41
2023/10/08 18:08:11;;;;;;;;;;;;;;;22.79;41.29;100970.31;7396340;19;1609;-41
2023/10/08 18:10:41;;;;;;;;;;;;;;;22.78;41.15;100990.19;7396170;19;1811;-41
2023/10/08 18:13:11;;;;;;;;;;;;;;;22.82;41.09;100993.44;7394592;19;1857;-41
2023/10/08 18:15:39;;;;;;;;;;;;;;;22.86;40.69;101005.59;7396104;19;1563;-40
2023/10/08 18:18:13;;;;;;;;;;;;;;;22.96;40.65;101027.06;7396596;19;1498;-41
2023/10/08 18:20:44;;;;;;;;;;;;;;;23.03;40.73;101030.88;7396337;19;1915;-41
2023/10/08 18:23:12;;;;;;;;;;;;;;;23.14;41.19;101040.56;7395221;19;2522;-41
2023/10/08 18:25:44;;;;;;;;;;;;;;;23.07;41.23;101037.66;7397237;19;1770;-41
2023/10/08 18:28:13;;;;;;;;;;;;;;;23.06;41.40;101048.59;7395055;19;1706;-41
2023/10/08 18:30:43;;;;;;;;;;;;;;;23.08;41.76;101054.69;7396236;19;1876;-41
2023/10/08 18:33:12;;;;;;;;;;;;;;;23.19;41.29;101040.97;7394010;19;1855;-41
2023/10/08 18:35:40;;;;;;;;;;;;;;;23.25;41.69;101056.50;7396999;19;1741;-41
2023/10/08 18:38:09;;;;;;;;;;;;;;;23.42;41.14;101049.41;7393914;19;1670;-40
2023/10/08 18:40:38;;;;;;;;;;;;;;;23.52;41.22;101062.81;7395849;19;1781;-41
2023/10/08 18:43:14;;;;;;;;;;;;;;;23.31;41.91;101047.78;7395346;19;1746;-41
2023/10/08 18:45:43;;;;;;;;;;;;;;;23.36;42.05;101058.97;7396157;19;1710;-41
2023/10/08 18:48:12;;;;;;;;;;;;;;;23.32;43.08;101067.56;7391979;19;1790;-41
2023/10/08 18:50:40;;;;;;;;;;;;;;;23.26;43.77;101058.22;7390781;19;1467;-41
2023/10/08 18:53:08;;;;;;;;;;;;;;;23.39;43.33;101069.44;7390979;19;1864;-41
2023/10/08 18:55:36;;;;;;;;;;;;;;;23.41;43.90;101097.13;7389329;19;1848;-41
2023/10/08 18:58:05;;;;;;;;;;;;;;;23.38;43.39;101094.75;7376458;19;1497;-41
2023/10/08 19:00:36;;;;;;;;;;;;;;;23.53;43.46;101102.28;7389216;19;1547;-41
2023/10/08 19:03:08;;;;;;;;;;;;;;;23.30;45.29;101108.19;7394182;19;1576;-41
2023/10/08 19:05:36;;;;;;;;;;;;;;;23.26;45.30;101092.44;7394005;19;1455;-40
2023/10/08 19:08:05;;;;;;;;;;;;;;;23.37;44.76;101097.59;7393424;19;1532;-41
2023/10/08 19:10:33;;;;;;;;;;;;;;;23.51;45.04;101096.19;7393575;19;1825;-41
2023/10/08 19:13:04;;;;;;;;;;;;;;;23.55;44.97;101100.25;7392218;19;1862;-41
2023/10/08 19:15:33;;;;;;;;;;;;;;;23.43;45.57;101108.59;7389151;19;1856;-41
2023/10/08 19:18:04;;;;;;;;;;;;;;;23.61;44.67;101115.81;7391159;19;1536;-41
2023/10/08 19:20:33;;;;;;;;;;;;;;;23.74;44.32;101115.44;7392401;19;1579;-41
2023/10/08 19:23:01;;;;;;;;;;;;;;;23.72;43.99;101126.38;7391137;19;1484;-41
2023/10/08 19:25:30;;;;;;;;;;;;;;;23.69;44.91;101121.28;7395342;19;1594;-41
2023/10/08 19:27:58;;;;;;;;;;;;;;;23.56;44.71;101134.38;7395005;19;1666;-41
2023/10/08 19:30:27;;;;;;;;;;;;;;;23.71;44.50;101126.53;7384302;19;1832;-41
2023/10/08 19:32:55;;;;;;;;;;;;;;;23.66;44.54;101127.00;7389462;19;2602;-41
2023/10/08 19:35:27;;;;;;;;;;;;;;;23.64;45.53;101142.53;7391103;19;1722;-40
2023/10/08 19:37:55;;;;;;;;;;;;;;;23.73;44.59;101157.75;7388871;19;1539;-41
2023/10/08 19:40:24;;;;;;;;;;;;;;;23.74;44.48;101148.66;7388262;19;1562;-40
2023/10/08 19:42:53;;;;;;;;;;;;;;;23.71;44.64;101162.47;7390409;19;1590;-41
2023/10/08 19:45:22;;;;;;;;;;;;;;;23.76;44.65;101184.47;7392057;19;1476;-41
2023/10/08 19:47:50;;;;;;;;;;;;;;;23.77;44.30;101183.47;7392768;19;1899;-40
2023/10/08 19:50:20;;;;;;;;;;;;;;;23.67;45.51;101168.34;7393448;19;1595;-41
2023/10/08 19:52:52;;;;;;;;;;;;;;;23.60;45.62;101189.75;7392322;19;1845;-41
2023/10/08 19:55:20;;;;;;;;;;;;;;;23.78;44.32;101203.25;7392673;19;1620;-41
2023/10/08 19:57:51;;;;;;;;;;;;;;;23.78;44.78;101209.50;7392524;19;1586;-41
2023/10/08 20:00:26;;;;;;;;;;;;;;;23.65;44.75;101211.72;7378110;19;1543;-40
2023/10/08 20:02:55;;;;;;;;;;;;;;;23.70;44.43;101213.97;7391215;19;1358;-41
2023/10/08 20:05:23;;;;;;;;;;;;;;;23.71;44.63;101223.75;7392412;19;1461;-41
2023/10/08 20:07:54;;;;;;;;;;;;;;;23.66;44.34;101224.22;7391560;19;1538;-41
2023/10/08 20:10:23;;;;;;;;;;;;;;;23.57;45.22;101211.63;7391702;19;1578;-41
2023/10/08 20:12:53;;;;;;;;;;;;;;;23.65;45.80;101230.59;7387200;19;1862;-44
2023/10/08 20:15:22;;;;;;;;;;;;;;;23.77;45.13;101245.59;7388048;19;1479;-41
2023/10/08 20:17:51;;;;;;;;;;;;;;;23.75;45.28;101244.03;7390301;19;1940;-41
2023/10/08 20:20:21;;;;;;;;;;;;;;;23.71;44.92;101245.34;7389327;19;1519;-41
2023/10/08 20:22:51;;;;;;;;;;;;;;;23.73;44.97;101260.38;7390351;19;1542;-41
2023/10/08 20:25:24;;;;;;;;;;;;;;;23.59;45.65;101269.88;7389138;19;1392;-41
2023/10/08 20:27:53;;;;;;;;;;;;;;;23.47;46.05;101294.53;7380408;19;1435;-41
2023/10/08 20:30:22;;;;;;;;;;;;;;;23.58;45.42;101275.44;7387230;19;1464;-41
2023/10/08 20:32:51;;;;;;;;;;;;;;;23.68;45.38;101273.50;6868926;19;10000364;-41
2023/10/08 20:35:20;;;;;;;;;;;;;;;23.64;45.47;101304.53;7376634;19;1422;-41
2023/10/08 20:37:49;;;;;;;;;;;;;;;23.56;45.71;101312.53;7384739;19;1812;-41
2023/10/08 20:40:19;;;;;;;;;;;;;;;23.59;45.41;101312.22;7384834;19;1926;-41
2023/10/08 20:42:50;;;;;;;;;;;;;;;23.55;45.43;101306.28;7384045;19;1562;-41
2023/10/08 20:45:20;;;;;;;;;;;;;;;23.50;45.35;101305.91;7383872;19;1455;-41
2023/10/08 20:47:49;;;;;;;;;;;;;;;23.47;45.68;101297.25;7383801;19;1507;-41
2023/10/08 20:50:18;;;;;;;;;;;;;;;23.56;45.42;101307.97;7379228;19;1424;-41
2023/10/08 20:52:47;;;;;;;;;;;;;;;23.47;45.63;101318.84;7374668;19;2384;-41
2023/10/08 20:55:16;;;;;;;;;;;;;;;23.40;46.47;101324.00;7380338;19;1761;-41
2023/10/08 20:57:45;;;;;;;;;;;;;;;23.52;45.55;101300.34;7386850;19;1477;-41
2023/10/08 21:00:20;;;;;;;;;;;;;;;23.59;45.57;101317.63;7371021;19;1813;-41
2023/10/08 21:02:51;;;;;;;;;;;;;;;23.56;45.93;101317.94;7391346;19;1417;-41
2023/10/08 21:05:19;;;;;;;;;;;;;;;23.51;45.89;101318.38;7390541;19;1542;-41
2023/10/08 21:07:49;;;;;;;;;;;;;;;23.50;45.88;101343.69;7390923;19;1532;-41
2023/10/08 21:10:18;;;;;;;;;;;;;;;23.52;46.14;101338.16;7391242;19;1567;-41
2023/10/08 21:12:48;;;;;;;;;;;;;;;23.54;45.79;101352.34;7389813;19;1607;-41
2023/10/08 21:15:19;;;;;;;;;;;;;;;23.45;46.29;101353.22;7395268;19;1405;-41
2023/10/08 21:17:48;;;;;;;;;;;;;;;23.43;46.04;101343.41;7395911;19;1725;-41
2023/10/08 21:20:18;;;;;;;;;;;;;;;23.48;46.09;101347.56;7397304;19;1619;-41
2023/10/08 21:22:48;;;;;;;;;;;;;;;23.48;45.82;101352.94;7396992;19;1688;-41
2023/10/08 21:25:19;;;;;;;;;;;;;;;23.49;46.01;101346.53;7396300;19;1942;-40
2023/10/08 21:27:48;;;;;;;;;;;;;;;23.45;46.08;101355.94;7396799;19;1523;-41
2023/10/08 21:30:19;;;;;;;;;;;;;;;23.44;46.24;101347.00;7396519;19;1519;-41
2023/10/08 21:32:48;;;;;;;;;;;;;;;23.50;45.90;101334.75;7397903;19;1702;-41
2023/10/08 21:35:16;;;;;;;;;;;;;;;23.41;46.14;101345.41;7393883;19;1921;-41
2023/10/08 21:37:45;;;;;;;;;;;;;;;23.43;46.50;101350.69;7396127;19;1544;-45
2023/10/08 21:40:15;;;;;;;;;;;;;;;23.46;46.21;101371.13;7395970;19;1499;-41
2023/10/08 21:42:44;;;;;;;;;;;;;;;23.40;46.32;101381.53;7394574;19;1556;-41
2023/10/08 21:45:13;;;;;;;;;;;;;;;23.36;46.44;101382.84;7396539;19;1765;-41
2023/10/08 21:47:45;;;;;;;;;;;;;;;23.40;46.42;101391.47;7396656;19;1787;-41
2023/10/08 21:50:13;;;;;;;;;;;;;;;23.44;46.04;101427.97;7395912;19;1788;-41
2023/10/08 21:52:42;;;;;;;;;;;;;;;23.43;46.10;101428.97;7396264;19;1585;-41
2023/10/08 21:55:11;;;;;;;;;;;;;;;23.39;46.16;101430.25;7395071;19;1849;-41
2023/10/08 21:57:40;;;;;;;;;;;;;;;23.40;46.40;101431.97;7395813;19;1538;-41
2023/10/08 22:00:32;;;;;;;;;;;;;;;23.39;46.26;101431.09;7381696;19;1749;-41
2023/10/08 22:03:06;;;;;;;;;;;;;;;23.42;46.18;101436.22;7397296;19;1550;-41
2023/10/08 22:05:35;;;;;;;;;;;;;;;23.40;46.20;101453.56;7395265;19;1824;-41
2023/10/08 22:08:06;;;;;;;;;;;;;;;23.35;46.23;101432.41;7395339;19;1416;-41
2023/10/08 22:10:35;;;;;;;;;;;;;;;23.40;46.27;101438.22;7393924;19;1397;-41
2023/10/08 22:13:08;;;;;;;;;;;;;;;23.40;46.36;101434.66;7394819;19;1429;-41
2023/10/08 22:15:44;;;;;;;;;;;;;;;23.34;46.65;101437.97;7396654;19;1825;-42
2023/10/08 22:18:25;;;;;;;;;;;;;;;23.32;46.34;101443.50;7393273;19;1521;-41
2023/10/08 22:20:53;;;;;;;;;;;;;;;23.36;46.44;101438.66;7395990;19;1806;-41
2023/10/08 22:23:25;;;;;;;;;;;;;;;23.37;46.48;101438.50;7395984;19;1815;-41
2023/10/08 22:25:54;;;;;;;;;;;;;;;23.35;46.22;101443.19;7395188;19;1457;-41
2023/10/08 22:28:25;;;;;;;;;;;;;;;23.33;46.46;101442.47;7396285;19;1536;-40
2023/10/08 22:30:55;;;;;;;;;;;;;;;23.36;46.42;101441.38;7395206;19;1503;-41
2023/10/08 22:33:33;;;;;;;;;;;;;;;23.39;46.36;101458.09;7395883;19;1846;-41
2023/10/08 22:36:04;;;;;;;;;;;;;;;23.38;46.19;101466.34;7394320;19;1750;-41
2023/10/08 22:38:32;;;;;;;;;;;;;;;23.36;46.29;101474.59;7394382;19;1606;-40
2023/10/08 22:43:54;;;;;;;;;;;;;;;23.37;46.36;101475.44;7387980;19;1905;-41
2023/10/08 22:46:32;;;;;;;;;;;;;;;23.38;46.40;101472.59;7393887;19;1781;-41
2023/10/08 22:49:16;;;;;;;;;;;;;;;23.38;46.16;101491.50;7395740;19;1815;-40
2023/10/08 22:51:46;;;;;;;;;;;;;;;23.40;46.45;101508.38;7393792;19;1517;-41
2023/10/08 22:54:15;;;;;;;;;;;;;;;23.37;46.22;101514.06;7394861;19;1866;-41
2023/10/08 22:56:44;;;;;;;;;;;;;;;23.32;46.56;101510.97;7394714;19;1626;-41
2023/10/08 22:59:15;;;;;;;;;;;;;;;23.36;46.60;101528.56;7378215;19;1544;-40
2023/10/08 23:01:44;;;;;;;;;;;;;;;23.35;46.52;101526.00;7393956;19;1640;-41
2023/10/08 23:04:15;;;;;;;;;;;;;;;23.32;46.53;101521.75;7392957;19;1479;-41
2023/10/08 23:06:43;;;;;;;;;;;;;;;23.33;46.19;101533.41;7393607;19;1473;-41
2023/10/08 23:09:14;;;;;;;;;;;;;;;23.30;46.50;101531.84;7395426;19;1539;-41
2023/10/08 23:11:44;;;;;;;;;;;;;;;23.34;46.21;101548.63;7394565;19;1767;-41
2023/10/08 23:14:14;;;;;;;;;;;;;;;23.36;46.21;101557.41;7391017;19;1877;-41
2023/10/08 23:16:43;;;;;;;;;;;;;;;23.31;46.56;101552.44;7393825;19;1737;-40
2023/10/08 23:19:14;;;;;;;;;;;;;;;23.36;46.44;101555.56;7392628;19;1407;-41
2023/10/08 23:21:45;;;;;;;;;;;;;;;23.32;46.72;101553.31;7393526;19;1827;-41
2023/10/08 23:24:14;;;;;;;;;;;;;;;23.30;46.60;101556.16;7394160;19;1569;-41
2023/10/08 23:26:43;;;;;;;;;;;;;;;23.29;46.74;101570.63;7393468;19;1737;-41
2023/10/08 23:29:12;;;;;;;;;;;;;;;23.31;46.46;101579.41;7392868;19;1654;-41
2023/10/08 23:31:42;;;;;;;;;;;;;;;23.30;46.76;101564.25;7393528;19;1488;-41
2023/10/08 23:34:13;;;;;;;;;;;;;;;23.33;46.74;101577.44;7392682;19;1852;-41
2023/10/08 23:36:42;;;;;;;;;;;;;;;23.36;46.70;101576.31;7390898;19;1764;-41
2023/10/08 23:39:25;;;;;;;;;;;;;;;23.38;46.69;101596.75;7392062;19;1396;-40
2023/10/08 23:42:00;;;;;;;;;;;;;;;23.36;46.46;101571.75;7394086;19;1430;-40
2023/10/08 23:44:30;;;;;;;;;;;;;;;23.34;46.61;101583.69;7393889;19;1425;-40
2023/10/08 23:47:07;;;;;;;;;;;;;;;23.34;46.72;101567.50;7392089;19;1837;-41
2023/10/08 23:49:46;;;;;;;;;;;;;;;23.33;46.50;101565.78;7393006;19;1789;-41
2023/10/08 23:52:17;;;;;;;;;;;;;;;23.38;46.50;101574.31;7391756;19;1909;-41
2023/10/08 23:54:56;;;;;;;;;;;;;;;23.32;46.56;101564.09;7391427;19;1861;-41
2023/10/08 23:57:30;;;;;;;;;;;;;;;23.33;46.52;101572.03;7390792;19;1911;-41
